Time;durP1;ratioP1;P1;durP2;ratioP2;P2;SDS_P1;SDS_P2;PMS_P1;PMS_P2;Temp;Humidity;BMP_temperature;BMP_pressure;BME280_temperature;BME280_humidity;BME280_pressure;Samples;Min_cycle;Max_cycle;Signal;HPM_P1;HPM_P2
2021/08/18 00:00:18;;;;;;;4.38;2.38;;;;;;;12.34;71.73;96639.27;127624;1093;26142;-83
2021/08/18 00:03:06;;;;;;;5.73;2.75;;;;;;;12.29;71.80;96649.98;127564;1093;74032;-83
2021/08/18 00:05:38;;;;;;;6.65;2.65;;;;;;;12.29;72.07;96649.20;127609;1093;23877;-83
2021/08/18 00:08:12;;;;;;;3.83;2.38;;;;;;;12.27;72.16;96646.83;127631;1093;23599;-83
2021/08/18 00:10:44;;;;;;;4.65;2.50;;;;;;;12.22;72.12;96644.22;127598;1093;22777;-82
2021/08/18 00:13:15;;;;;;;4.63;2.70;;;;;;;12.24;72.09;96641.27;127736;1092;28140;-83
2021/08/18 00:15:47;;;;;;;4.78;3.10;;;;;;;12.23;72.01;96635.17;127702;1093;22996;-82
2021/08/18 00:18:19;;;;;;;2.80;2.10;;;;;;;12.31;72.19;96641.72;127714;1093;22829;-82
2021/08/18 00:20:50;;;;;;;3.73;2.53;;;;;;;12.35;72.02;96642.71;127655;1093;26067;-82
2021/08/18 00:23:30;;;;;;;3.18;2.40;;;;;;;12.37;71.67;96654.63;127567;1093;23468;-82
2021/08/18 00:26:02;;;;;;;4.07;2.43;;;;;;;12.33;71.73;96645.66;127604;1092;23310;-83
2021/08/18 00:28:33;;;;;;;4.73;2.53;;;;;;;12.32;71.70;96635.32;127567;1093;23307;-83
2021/08/18 00:31:05;;;;;;;2.98;2.18;;;;;;;12.30;71.71;96640.93;127634;1093;24759;-83
2021/08/18 00:33:36;;;;;;;3.15;2.38;;;;;;;12.29;71.76;96646.53;127668;1093;24076;-83
2021/08/18 00:36:08;;;;;;;4.73;2.50;;;;;;;12.30;71.73;96654.22;127644;1093;25579;-83
2021/08/18 00:38:40;;;;;;;2.90;2.30;;;;;;;12.28;71.89;96653.72;127576;1093;27500;-83
2021/08/18 00:41:12;;;;;;;4.85;2.43;;;;;;;12.25;72.17;96662.28;127623;1093;29758;-83
2021/08/18 00:43:43;;;;;;;2.80;1.80;;;;;;;12.15;72.35;96662.41;127649;1093;23792;-82
2021/08/18 00:46:14;;;;;;;3.13;2.35;;;;;;;12.08;72.30;96656.64;127650;1093;23477;-83
2021/08/18 00:48:46;;;;;;;4.68;2.40;;;;;;;12.08;72.60;96646.01;127617;1092;23128;-82
2021/08/18 00:51:18;;;;;;;4.15;2.40;;;;;;;12.04;72.68;96648.45;127554;1093;24861;-82
2021/08/18 00:53:51;;;;;;;4.05;2.35;;;;;;;12.00;72.83;96644.01;127622;1093;24193;-83
2021/08/18 00:56:23;;;;;;;2.60;2.25;;;;;;;11.95;73.24;96636.09;127609;1092;23524;-82
2021/08/18 00:58:54;;;;;;;3.38;2.13;;;;;;;11.92;73.12;96640.11;127560;1093;69390;-84
2021/08/18 01:01:25;;;;;;;4.50;2.35;;;;;;;11.87;73.25;96643.63;127567;1093;25880;-82
2021/08/18 01:03:59;;;;;;;2.63;2.10;;;;;;;11.89;73.23;96638.03;127580;1093;22802;-82
2021/08/18 01:06:31;;;;;;;3.63;1.93;;;;;;;11.95;73.33;96638.74;127683;1093;22851;-84
2021/08/18 01:09:03;;;;;;;4.45;2.23;;;;;;;11.94;73.19;96639.82;127577;1093;23310;-83
2021/08/18 01:11:36;;;;;;;3.53;2.15;;;;;;;12.02;73.28;96645.30;127563;1093;23787;-83
2021/08/18 01:14:09;;;;;;;3.50;2.25;;;;;;;12.06;73.10;96645.51;127598;1092;36554;-82
2021/08/18 01:16:45;;;;;;;4.50;2.37;;;;;;;12.08;72.75;96638.04;127570;1093;22802;-83
2021/08/18 01:19:18;;;;;;;4.28;1.90;;;;;;;12.12;72.71;96633.75;127563;1093;27336;-82
2021/08/18 01:21:52;;;;;;;4.90;2.50;;;;;;;12.17;72.64;96631.02;127629;1093;26345;-82
2021/08/18 01:24:24;;;;;;;2.95;2.10;;;;;;;12.20;72.50;96638.41;127583;1093;22829;-82
2021/08/18 01:26:55;;;;;;;4.67;2.37;;;;;;;12.15;72.49;96633.96;127584;1093;24595;-83
2021/08/18 01:29:26;;;;;;;4.10;2.15;;;;;;;12.09;72.57;96635.09;127594;1093;23529;-82
2021/08/18 01:31:59;;;;;;;3.25;1.93;;;;;;;12.05;72.77;96631.44;127562;1092;25301;-82
2021/08/18 01:34:31;;;;;;;2.60;1.83;;;;;;;12.01;72.78;96627.78;127565;1093;23385;-83
2021/08/18 01:37:02;;;;;;;4.53;2.33;;;;;;;12.04;72.88;96621.09;127584;1093;27385;-83
2021/08/18 01:39:34;;;;;;;3.28;2.28;;;;;;;12.01;72.90;96626.98;127583;1093;28496;-83
2021/08/18 01:42:05;;;;;;;2.85;2.10;;;;;;;12.00;72.99;96628.86;127604;1093;24092;-82
2021/08/18 01:44:37;;;;;;;3.60;2.30;;;;;;;12.01;73.03;96624.33;127573;1093;23471;-82
2021/08/18 01:47:12;;;;;;;2.90;2.13;;;;;;;11.99;72.91;96621.97;127597;1093;26454;-82
2021/08/18 01:49:44;;;;;;;3.20;2.10;;;;;;;11.99;72.90;96616.65;127648;1093;23047;-82
2021/08/18 01:52:20;;;;;;;4.60;2.03;;;;;;;12.04;72.93;96623.75;127637;1092;30921;-83
2021/08/18 01:54:51;;;;;;;2.95;1.90;;;;;;;12.11;72.92;96629.52;127646;1093;28210;-83
2021/08/18 01:57:22;;;;;;;2.78;2.28;;;;;;;12.13;72.53;96625.49;127521;1093;37451;-82
2021/08/18 01:59:54;;;;;;;3.53;2.13;;;;;;;12.14;72.52;96626.28;127587;1093;28686;-82
2021/08/18 02:02:30;;;;;;;4.15;2.40;;;;;;;12.16;72.57;96614.28;127616;1093;24143;-83
2021/08/18 02:05:01;;;;;;;2.70;1.90;;;;;;;12.21;72.42;96624.03;127609;1093;25544;-82
2021/08/18 02:07:32;;;;;;;3.35;1.88;;;;;;;12.20;72.40;96625.12;127590;1092;23377;-81
2021/08/18 02:10:04;;;;;;;2.58;1.95;;;;;;;12.18;72.36;96627.28;127592;1093;29684;-82
2021/08/18 02:12:37;;;;;;;5.13;2.60;;;;;;;12.18;72.49;96627.28;127614;1093;23615;-82
2021/08/18 02:15:11;;;;;;;2.93;1.80;;;;;;;12.22;72.36;96630.93;127610;1093;24573;-83
2021/08/18 02:17:47;;;;;;;3.18;2.20;;;;;;;12.19;72.49;96623.54;127645;1092;27949;-82
2021/08/18 02:20:21;;;;;;;2.70;1.83;;;;;;;12.16;72.56;96621.47;127591;1093;23226;-82
2021/08/18 02:22:52;;;;;;;6.75;2.40;;;;;;;12.10;72.49;96614.63;127625;1093;22806;-82
2021/08/18 02:25:24;;;;;;;3.00;2.25;;;;;;;12.10;72.54;96619.94;127599;1093;27778;-82
2021/08/18 02:27:55;;;;;;;4.90;2.05;;;;;;;12.10;72.52;96619.94;127613;1093;27445;-83
2021/08/18 02:30:30;;;;;;;2.18;1.98;;;;;;;12.11;72.70;96610.91;127599;1093;23892;-82
2021/08/18 02:33:02;;;;;;;2.43;1.90;;;;;;;12.11;72.46;96617.02;127625;1092;44231;-82
2021/08/18 02:35:34;;;;;;;4.25;2.30;;;;;;;12.12;72.43;96613.28;127580;1092;24918;-83
2021/08/18 02:38:08;;;;;;;4.55;2.43;;;;;;;12.14;72.42;96626.28;127585;1093;22825;-83
2021/08/18 02:40:39;;;;;;;3.55;2.25;;;;;;;12.11;72.41;96632.96;127562;1093;23101;-83
2021/08/18 02:43:11;;;;;;;3.48;1.80;;;;;;;12.12;72.46;96636.41;127585;1093;23502;-83
2021/08/18 02:45:42;;;;;;;3.93;2.20;;;;;;;12.13;72.60;96630.80;127552;1093;24924;-83
2021/08/18 02:48:13;;;;;;;3.50;1.93;;;;;;;12.12;72.46;96644.38;127600;1092;23670;-83
2021/08/18 02:50:45;;;;;;;4.43;2.47;;;;;;;12.12;72.58;96653.14;127632;1093;27488;-82
2021/08/18 02:53:16;;;;;;;3.18;2.30;;;;;;;12.07;72.87;96647.09;127622;1092;22826;-83
2021/08/18 02:55:48;;;;;;;2.00;1.68;;;;;;;12.04;72.99;96650.33;127606;1093;26992;-81
2021/08/18 02:58:20;;;;;;;3.28;2.10;;;;;;;12.00;72.98;96660.74;127675;1093;25234;-82
2021/08/18 03:00:52;;;;;;;4.68;2.20;;;;;;;11.99;73.15;96648.53;127699;1093;24383;-82
2021/08/18 03:03:24;;;;;;;2.85;1.95;;;;;;;12.06;73.13;96650.83;127660;1093;74119;-83
2021/08/18 03:05:55;;;;;;;3.65;2.10;;;;;;;12.09;73.27;96644.94;127604;1093;26982;-82
2021/08/18 03:08:26;;;;;;;3.55;1.98;;;;;;;12.12;73.20;96657.67;127689;1093;22806;-82
2021/08/18 03:10:58;;;;;;;3.98;2.45;;;;;;;12.12;73.22;96655.02;127621;1093;23542;-82
2021/08/18 03:13:29;;;;;;;2.35;2.00;;;;;;;12.08;73.24;96653.98;127751;1093;25093;-82
2021/08/18 03:16:01;;;;;;;3.00;2.28;;;;;;;12.08;73.22;96653.98;127698;1093;24618;-83
2021/08/18 03:18:33;;;;;;;4.73;2.50;;;;;;;12.12;73.35;96644.38;127679;1092;27345;-82
2021/08/18 03:21:04;;;;;;;7.80;2.20;;;;;;;12.14;73.07;96636.91;127696;1093;26421;-82
2021/08/18 03:23:35;;;;;;;3.35;2.03;;;;;;;12.15;73.15;96646.46;127620;1093;22806;-82
2021/08/18 03:26:08;;;;;;;4.00;2.40;;;;;;;12.12;73.13;96645.17;127621;1092;27227;-83
2021/08/18 03:28:40;;;;;;;3.40;2.08;;;;;;;12.18;73.19;96635.25;127612;1093;22825;-83
2021/08/18 03:31:11;;;;;;;4.40;2.30;;;;;;;12.17;73.16;96645.09;127569;1093;23720;-83
2021/08/18 03:33:43;;;;;;;3.10;2.20;;;;;;;12.13;73.37;96645.96;127676;1093;23540;-83
2021/08/18 03:36:15;;;;;;;3.35;1.85;;;;;;;12.06;73.38;96645.51;127661;1093;24270;-83
2021/08/18 03:38:46;;;;;;;3.33;2.13;;;;;;;12.04;73.59;96645.01;127651;1093;22888;-82
2021/08/18 03:41:17;;;;;;;3.28;2.05;;;;;;;12.00;73.67;96644.01;127554;1092;30287;-82
2021/08/18 03:43:49;;;;;;;3.48;2.33;;;;;;;11.96;73.63;96651.73;127620;1093;37037;-82
2021/08/18 03:46:20;;;;;;;3.63;2.50;;;;;;;11.94;73.81;96648.58;127555;1092;32695;-82
2021/08/18 03:48:52;;;;;;;4.58;2.50;;;;;;;11.92;73.91;96655.27;127495;1093;83318;-83
2021/08/18 03:51:24;;;;;;;2.75;2.05;;;;;;;11.86;74.19;96647.37;127557;1093;29166;-82
2021/08/18 03:53:55;;;;;;;5.10;2.23;;;;;;;11.88;74.34;96655.05;127588;1093;24410;-82
2021/08/18 03:56:27;;;;;;;3.55;2.33;;;;;;;11.87;74.27;96653.47;127567;1093;42024;-82
2021/08/18 03:58:58;;;;;;;4.15;2.18;;;;;;;11.88;74.20;96655.84;127587;1092;28650;-82
2021/08/18 04:01:30;;;;;;;3.45;2.45;;;;;;;11.89;74.16;96652.10;127568;1093;26550;-83
2021/08/18 04:04:01;;;;;;;5.53;2.70;;;;;;;11.90;74.17;96655.55;127569;1093;22802;-82
2021/08/18 04:06:32;;;;;;;4.35;2.23;;;;;;;11.96;74.20;96656.27;127599;1093;24166;-82
2021/08/18 04:09:04;;;;;;;5.10;2.57;;;;;;;11.97;74.41;96653.34;127612;1093;23265;-83
2021/08/18 04:11:35;;;;;;;3.63;2.40;;;;;;;11.95;74.15;96654.69;127585;1093;24162;-83
2021/08/18 04:14:10;;;;;;;3.70;2.43;;;;;;;12.00;74.16;96657.30;127639;1093;26994;-83
2021/08/18 04:16:42;;;;;;;3.20;2.15;;;;;;;12.05;74.07;96655.35;127619;1093;27091;-83
2021/08/18 04:19:13;;;;;;;5.13;2.75;;;;;;;12.10;73.99;96651.83;127718;1093;23323;-83
2021/08/18 04:21:45;;;;;;;3.13;2.38;;;;;;;12.15;73.83;96651.77;127695;1093;26772;-82
2021/08/18 04:24:16;;;;;;;2.95;2.13;;;;;;;12.18;73.82;96644.02;127613;1093;24619;-84
2021/08/18 04:26:47;;;;;;;5.23;2.25;;;;;;;12.18;73.85;96643.22;127527;1093;72549;-82
2021/08/18 04:29:19;;;;;;;4.63;2.70;;;;;;;12.29;73.90;96647.33;127620;1093;25804;-83
2021/08/18 04:31:51;;;;;;;3.83;2.03;;;;;;;12.35;73.63;96651.48;127564;1093;32676;-82
2021/08/18 04:34:22;;;;;;;4.43;1.90;;;;;;;12.38;73.51;96644.79;127561;1093;24208;-82
2021/08/18 04:36:53;;;;;;;3.18;2.18;;;;;;;12.42;73.61;96651.92;127579;1093;24088;-82
2021/08/18 04:39:24;;;;;;;4.00;2.38;;;;;;;12.51;73.32;96653.91;127555;1093;23911;-82
2021/08/18 04:41:56;;;;;;;3.35;2.20;;;;;;;12.54;73.38;96656.02;127567;1092;27421;-83
2021/08/18 04:44:27;;;;;;;3.03;2.20;;;;;;;12.57;73.10;96650.11;127550;1093;30525;-82
2021/08/18 04:46:59;;;;;;;2.83;1.93;;;;;;;12.67;73.16;96649.97;127561;1093;28048;-83
2021/08/18 04:49:30;;;;;;;3.77;2.43;;;;;;;12.72;72.84;96655.19;127592;1092;26584;-82
2021/08/18 04:52:01;;;;;;;2.78;2.13;;;;;;;12.87;73.05;96654.94;127551;1093;31185;-82
2021/08/18 04:54:33;;;;;;;5.83;2.38;;;;;;;13.14;72.80;96658.77;127525;1093;57776;-82
2021/08/18 04:57:05;;;;;;;3.97;1.90;;;;;;;13.39;72.51;96645.03;127606;1093;23314;-82
2021/08/18 04:59:36;;;;;;;3.83;2.10;;;;;;;13.48;72.07;96645.90;127581;1093;26310;-83
2021/08/18 05:02:08;;;;;;;4.95;2.20;;;;;;;13.40;71.13;96649.27;127570;1093;23838;-82
2021/08/18 05:04:40;;;;;;;4.80;2.78;;;;;;;13.33;71.53;96651.52;127569;1093;28244;-83
2021/08/18 05:07:11;;;;;;;2.90;2.03;;;;;;;13.36;70.88;96648.25;127607;1093;24855;-84
2021/08/18 05:09:43;;;;;;;3.53;2.60;;;;;;;13.31;71.19;96648.36;127621;1093;25201;-83
2021/08/18 05:12:14;;;;;;;4.38;2.00;;;;;;;13.25;71.03;96652.21;127629;1093;27028;-82
2021/08/18 05:14:46;;;;;;;3.33;2.35;;;;;;;13.19;71.09;96661.35;127671;1093;24350;-82
2021/08/18 05:17:17;;;;;;;4.05;2.48;;;;;;;13.09;71.08;96656.98;127645;1093;23260;-81
2021/08/18 05:19:48;;;;;;;5.33;2.00;;;;;;;13.06;70.88;96653.02;127588;1093;23813;-81
2021/08/18 05:22:20;;;;;;;4.60;2.85;;;;;;;13.01;71.01;96662.97;127605;1092;25383;-82
2021/08/18 05:24:51;;;;;;;4.80;2.43;;;;;;;13.02;70.95;96660.02;127618;1093;24143;-82
2021/08/18 05:27:23;;;;;;;4.60;2.55;;;;;;;12.96;71.12;96657.74;127704;1093;23016;-83
2021/08/18 05:29:54;;;;;;;4.00;2.40;;;;;;;12.93;71.12;96651.11;127590;1093;36869;-83
2021/08/18 05:32:30;;;;;;;3.68;2.20;;;;;;;12.92;71.18;96660.17;127709;1093;27577;-83
2021/08/18 05:35:02;;;;;;;4.20;2.70;;;;;;;12.91;71.30;96655.14;127723;1093;22932;-82
2021/08/18 05:37:33;;;;;;;5.05;2.60;;;;;;;12.92;71.47;96652.19;127651;1093;27556;-82
2021/08/18 05:40:06;;;;;;;4.75;2.50;;;;;;;12.86;71.27;96653.37;127545;1093;24559;-82
2021/08/18 05:42:38;;;;;;;4.88;2.60;;;;;;;12.84;71.57;96654.75;127638;1093;26362;-82
2021/08/18 05:45:11;;;;;;;3.05;2.20;;;;;;;12.88;71.81;96656.52;127623;1092;26883;-82
2021/08/18 05:47:43;;;;;;;3.43;2.18;;;;;;;12.92;71.54;96662.83;127715;1093;27512;-83
2021/08/18 05:50:15;;;;;;;4.78;2.80;;;;;;;12.91;71.36;96661.25;127728;1093;26921;-83
2021/08/18 05:52:46;;;;;;;3.55;2.83;;;;;;;12.93;71.80;96664.41;127682;1093;30086;-83
2021/08/18 05:55:17;;;;;;;3.75;2.50;;;;;;;12.92;71.45;96670.03;127599;1093;25587;-81
2021/08/18 05:57:51;;;;;;;4.10;2.50;;;;;;;12.90;71.55;96670.32;127595;1093;23302;-82
2021/08/18 06:00:23;;;;;;;5.38;2.83;;;;;;;12.94;71.83;96671.31;127567;1093;28720;-82
2021/08/18 06:02:55;;;;;;;5.40;2.80;;;;;;;12.99;71.67;96660.59;127572;1093;24887;-82
2021/08/18 06:05:26;;;;;;;3.67;2.33;;;;;;;13.04;71.69;96665.04;127595;1092;30215;-82
2021/08/18 06:07:59;;;;;;;3.43;2.38;;;;;;;13.05;71.55;96659.42;127586;1093;25948;-82
2021/08/18 06:10:30;;;;;;;4.13;2.53;;;;;;;13.06;71.38;96661.00;127526;1093;30196;-82
2021/08/18 06:13:02;;;;;;;3.60;2.33;;;;;;;13.10;71.88;96657.77;127591;1093;24507;-83
2021/08/18 06:15:35;;;;;;;4.55;2.63;;;;;;;13.12;72.04;96660.93;127559;1093;26057;-83
2021/08/18 06:18:06;;;;;;;3.63;2.87;;;;;;;13.19;71.82;96661.35;127550;1093;60229;-82
2021/08/18 06:20:38;;;;;;;4.03;2.50;;;;;;;13.27;72.17;96666.02;127563;1093;24237;-82
2021/08/18 06:23:10;;;;;;;5.65;2.85;;;;;;;13.34;72.18;96663.73;127564;1093;28906;-82
2021/08/18 06:25:51;;;;;;;4.80;2.70;;;;;;;13.44;72.05;96662.77;127495;1093;30680;-82
2021/08/18 06:28:25;;;;;;;4.50;2.45;;;;;;;13.58;72.04;96658.25;127573;1093;28910;-83
2021/08/18 06:30:57;;;;;;;6.18;2.65;;;;;;;13.67;71.68;96661.81;127579;1092;27336;-83
2021/08/18 06:33:29;;;;;;;4.08;2.78;;;;;;;13.68;71.75;96663.39;127565;1093;24770;-83
2021/08/18 06:36:02;;;;;;;4.70;2.65;;;;;;;13.70;71.87;96658.55;127605;1093;26413;-83
2021/08/18 06:38:35;;;;;;;5.80;2.93;;;;;;;13.73;71.79;96657.95;127699;1093;22815;-83
2021/08/18 06:41:07;;;;;;;4.03;3.00;;;;;;;13.68;71.54;96657.27;127591;1093;22855;-82
2021/08/18 06:43:39;;;;;;;3.88;2.60;;;;;;;13.66;71.80;96665.56;127606;1093;23440;-83
2021/08/18 06:46:11;;;;;;;4.40;2.67;;;;;;;13.74;72.01;96664.06;127590;1093;24833;-84
2021/08/18 06:48:43;;;;;;;5.20;2.53;;;;;;;13.80;71.80;96655.69;127718;1093;23478;-82
2021/08/18 06:51:16;;;;;;;3.75;2.93;;;;;;;13.80;71.94;96655.69;127673;1093;28551;-83
2021/08/18 06:53:47;;;;;;;5.68;3.00;;;;;;;13.88;71.93;96654.97;127748;1093;28553;-82
2021/08/18 06:56:19;;;;;;;3.60;2.60;;;;;;;13.88;71.39;96662.97;127601;1093;29395;-82
2021/08/18 06:58:54;;;;;;;6.35;2.80;;;;;;;13.83;71.12;96655.09;127594;1093;22829;-82
2021/08/18 07:01:25;;;;;;;3.60;2.40;;;;;;;13.83;71.22;96652.42;127569;1093;24000;-83
2021/08/18 07:03:57;;;;;;;4.35;2.90;;;;;;;13.82;70.91;96647.39;127560;1092;24996;-82
2021/08/18 07:06:29;;;;;;;5.40;2.93;;;;;;;13.77;70.95;96656.26;127614;1092;25735;-83
2021/08/18 07:09:01;;;;;;;4.88;2.95;;;;;;;13.77;70.86;96656.26;127541;1093;26805;-82
2021/08/18 07:11:33;;;;;;;5.65;3.30;;;;;;;13.72;70.77;96658.25;127584;1093;23565;-83
2021/08/18 07:14:06;;;;;;;5.48;2.98;;;;;;;13.71;70.71;96652.13;127576;1093;22921;-83
2021/08/18 07:16:38;;;;;;;4.50;2.63;;;;;;;13.62;70.81;96648.57;127549;1093;27537;-83
2021/08/18 07:19:10;;;;;;;5.43;3.15;;;;;;;13.56;71.25;96652.42;127550;1092;28568;-83
2021/08/18 07:21:42;;;;;;;6.35;3.10;;;;;;;13.53;71.10;96655.69;127600;1093;23303;-83
2021/08/18 07:24:13;;;;;;;4.20;2.83;;;;;;;13.53;71.54;96661.02;127662;1093;26135;-82
2021/08/18 07:26:45;;;;;;;5.38;3.70;;;;;;;13.52;71.51;96652.23;127632;1093;28830;-82
2021/08/18 07:29:17;;;;;;;5.45;3.03;;;;;;;13.50;71.70;96657.05;127623;1093;27778;-83
2021/08/18 07:31:49;;;;;;;6.75;2.73;;;;;;;13.55;72.07;96653.52;127582;1093;26440;-81
2021/08/18 07:34:20;;;;;;;4.08;2.10;;;;;;;13.53;72.23;96653.81;127595;1093;22823;-82
2021/08/18 07:36:52;;;;;;;5.68;2.88;;;;;;;13.54;72.23;96657.27;127601;1092;22808;-82
2021/08/18 07:39:23;;;;;;;5.20;3.30;;;;;;;13.52;72.34;96660.23;127553;1093;28400;-82
2021/08/18 07:41:55;;;;;;;4.70;3.05;;;;;;;13.53;72.36;96661.80;127565;1093;28511;-83
2021/08/18 07:44:27;;;;;;;5.75;3.45;;;;;;;13.53;72.39;96667.13;127578;1093;27936;-82
2021/08/18 07:46:59;;;;;;;5.03;3.03;;;;;;;13.56;72.44;96663.08;127570;1093;27895;-83
2021/08/18 07:49:31;;;;;;;5.48;2.78;;;;;;;13.60;72.52;96658.73;127575;1093;24435;-83
2021/08/18 07:52:02;;;;;;;3.63;2.88;;;;;;;13.61;72.52;96658.44;127548;1093;24334;-82
2021/08/18 07:54:34;;;;;;;5.23;3.13;;;;;;;13.64;72.19;96660.50;127628;1093;27862;-84
2021/08/18 07:57:07;;;;;;;6.15;3.33;;;;;;;13.71;71.98;96662.78;127592;1092;24159;-82
2021/08/18 07:59:39;;;;;;;6.65;3.30;;;;;;;13.75;71.85;96655.77;127604;1093;23146;-82
2021/08/18 08:02:11;;;;;;;3.95;2.90;;;;;;;13.83;72.16;96659.63;127678;1091;26437;-83
2021/08/18 08:04:42;;;;;;;6.15;3.20;;;;;;;13.92;72.01;96660.49;127703;1092;25796;-83
2021/08/18 08:07:14;;;;;;;6.68;3.38;;;;;;;14.01;71.77;96663.26;127700;1093;22828;-83
2021/08/18 08:09:46;;;;;;;5.48;3.45;;;;;;;14.11;71.73;96660.39;127704;1093;24052;-83
2021/08/18 08:12:18;;;;;;;5.93;3.30;;;;;;;14.20;71.83;96659.36;127624;1093;38816;-83
2021/08/18 08:14:50;;;;;;;8.25;3.30;;;;;;;14.34;71.43;96653.20;127615;1093;22858;-83
2021/08/18 08:17:22;;;;;;;4.68;3.05;;;;;;;14.55;71.74;96651.70;127568;1093;25098;-83
2021/08/18 08:19:53;;;;;;;7.63;3.53;;;;;;;14.89;71.09;96648.48;127584;1092;27233;-83
2021/08/18 08:22:25;;;;;;;5.90;3.60;;;;;;;15.55;71.77;96657.47;127627;1093;23663;-83
2021/08/18 08:24:57;;;;;;;5.35;3.18;;;;;;;16.46;70.59;96656.73;127566;1093;27850;-83
2021/08/18 08:27:28;;;;;;;5.93;3.18;;;;;;;17.65;69.48;96648.03;127591;1093;24511;-83
2021/08/18 08:30:00;;;;;;;7.60;3.63;;;;;;;18.59;67.73;96640.53;127570;1093;24913;-83
2021/08/18 08:32:36;;;;;;;9.78;3.90;;;;;;;19.39;64.31;96640.23;127606;1093;24274;-83
2021/08/18 08:35:09;;;;;;;6.80;3.88;;;;;;;19.68;62.25;96639.28;127562;1093;24286;-83
2021/08/18 08:37:41;;;;;;;7.45;4.15;;;;;;;19.79;61.01;96629.64;127610;1093;23540;-82
2021/08/18 08:40:15;;;;;;;7.68;4.08;;;;;;;20.01;57.41;96625.72;127675;1093;23185;-83
2021/08/18 08:42:46;;;;;;;5.10;3.28;;;;;;;19.52;58.13;96628.38;127755;1093;23334;-83
2021/08/18 08:45:18;;;;;;;6.45;3.93;;;;;;;19.21;57.91;96630.80;127625;1093;28444;-82
2021/08/18 08:47:53;;;;;;;7.18;4.38;;;;;;;18.94;57.71;96621.44;127567;1093;23081;-82
2021/08/18 08:50:25;;;;;;;8.23;4.75;;;;;;;18.82;57.36;96632.13;127581;1092;24113;-83
2021/08/18 08:52:57;;;;;;;7.43;4.45;;;;;;;18.74;58.14;96623.05;127583;1093;25463;-83
2021/08/18 08:55:29;;;;;;;8.70;4.98;;;;;;;18.31;55.91;96626.07;127563;1093;25005;-82
2021/08/18 08:58:01;;;;;;;10.97;5.53;;;;;;;18.03;55.60;96618.52;127556;1093;26038;-84
2021/08/18 09:00:32;;;;;;;7.80;4.98;;;;;;;17.84;56.38;96617.36;127606;1093;24549;-82
2021/08/18 09:03:15;;;;;;;8.33;5.20;;;;;;;17.69;56.84;96610.66;127590;1091;24992;-83
2021/08/18 09:05:47;;;;;;;9.45;5.00;;;;;;;17.67;56.87;96616.32;127590;1092;31134;-83
2021/08/18 09:08:21;;;;;;;11.75;5.83;;;;;;;17.93;57.11;96620.79;127632;1093;29340;-83
2021/08/18 09:11:11;;;;;;;9.10;5.30;;;;;;;17.80;56.61;96622.59;127629;1093;23275;-82
2021/08/18 09:13:45;;;;;;;8.33;4.95;;;;;;;17.69;56.77;96606.09;127647;1093;23360;-84
2021/08/18 09:16:18;;;;;;;9.85;5.35;;;;;;;17.97;57.60;96606.40;127663;1093;26617;-84
2021/08/18 09:18:52;;;;;;;9.93;5.03;;;;;;;18.17;56.67;96612.13;127573;1093;23511;-81
2021/08/18 09:21:44;;;;;;;10.33;4.95;;;;;;;18.28;56.34;96597.97;127600;1092;24346;-82
2021/08/18 09:24:29;;;;;;;11.70;5.78;;;;;;;18.32;55.32;96598.91;127584;1093;27956;-83
2021/08/18 09:27:08;;;;;;;9.13;4.90;;;;;;;18.13;55.69;96603.92;127572;1093;23997;-84
2021/08/18 09:29:44;;;;;;;9.50;5.63;;;;;;;18.11;55.94;96606.15;127641;1093;22799;-83
2021/08/18 09:32:32;;;;;;;9.53;5.13;;;;;;;17.85;55.91;96603.63;127655;1093;26898;-83
2021/08/18 09:35:08;;;;;;;9.55;5.30;;;;;;;17.59;56.36;96602.95;127612;1093;29283;-83
2021/08/18 09:37:41;;;;;;;10.03;5.25;;;;;;;17.37;56.61;96604.01;127617;1092;36994;-84
2021/08/18 09:40:22;;;;;;;10.90;5.45;;;;;;;17.34;57.49;96599.30;127666;1093;26794;-83
2021/08/18 09:43:07;;;;;;;9.78;5.38;;;;;;;17.31;57.57;96599.92;127608;1093;26149;-83
2021/08/18 09:45:42;;;;;;;9.33;5.38;;;;;;;17.34;58.42;96607.34;127584;1093;24443;-83
2021/08/18 09:48:16;;;;;;;9.87;5.57;;;;;;;17.44;58.11;96601.60;127618;1093;29623;-82
2021/08/18 09:50:54;;;;;;;10.50;5.23;;;;;;;17.58;58.81;96604.84;127659;1093;23443;-83
2021/08/18 09:53:28;;;;;;;9.45;4.93;;;;;;;17.73;59.24;96600.86;127590;1093;25648;-83
2021/08/18 09:56:02;;;;;;;10.25;5.00;;;;;;;17.93;59.32;96604.70;127547;1093;28377;-84
2021/08/18 09:58:36;;;;;;;10.75;5.80;;;;;;;18.14;58.84;96605.48;127620;1093;26729;-83
2021/08/18 10:01:10;;;;;;;9.68;5.58;;;;;;;18.08;57.91;96612.17;127643;1093;23629;-83
2021/08/18 10:03:43;;;;;;;9.15;5.28;;;;;;;18.10;58.51;96607.27;127594;1093;27635;-83
2021/08/18 10:06:16;;;;;;;8.38;4.83;;;;;;;18.36;59.09;96605.17;127673;1093;23269;-82
2021/08/18 10:08:52;;;;;;;12.50;5.30;;;;;;;18.74;59.27;96598.89;127681;1092;23906;-83
2021/08/18 10:11:29;;;;;;;10.20;5.83;;;;;;;18.90;57.18;96590.98;127629;1093;24415;-83
2021/08/18 10:14:01;;;;;;;6.85;4.75;;;;;;;19.17;58.22;96590.38;127605;1093;25266;-83
2021/08/18 10:16:32;;;;;;;8.80;4.83;;;;;;;19.37;55.27;96588.70;127562;1093;25171;-83
2021/08/18 10:19:08;;;;;;;7.70;4.98;;;;;;;19.22;55.84;96589.36;127541;1093;24665;-83
2021/08/18 10:21:40;;;;;;;9.08;5.33;;;;;;;19.30;56.51;96587.70;127629;1093;22813;-83
2021/08/18 10:24:32;;;;;;;9.75;5.65;;;;;;;19.20;54.46;96586.23;127567;1092;23567;-83
2021/08/18 10:27:05;;;;;;;10.00;5.63;;;;;;;18.87;53.94;96589.75;127589;1092;23257;-83
2021/08/18 10:29:41;;;;;;;10.23;5.23;;;;;;;18.58;53.93;96589.82;127547;1093;23015;-83
2021/08/18 10:32:19;;;;;;;9.05;5.58;;;;;;;18.26;54.86;96594.83;127640;1093;27185;-83
2021/08/18 10:34:51;;;;;;;10.13;5.95;;;;;;;18.40;57.14;96589.98;127564;1093;24133;-83
2021/08/18 10:37:29;;;;;;;9.37;5.23;;;;;;;18.69;55.31;96588.33;127531;1093;27583;-83
2021/08/18 10:40:14;;;;;;;7.53;5.20;;;;;;;18.59;54.46;96586.05;127579;1093;22957;-83
2021/08/18 10:42:47;;;;;;;9.40;5.25;;;;;;;18.37;53.80;96579.91;127661;1092;25339;-83
2021/08/18 10:45:39;;;;;;;8.15;5.38;;;;;;;18.16;53.81;96589.88;127550;1093;38891;-82
2021/08/18 10:48:12;;;;;;;9.43;5.80;;;;;;;18.15;53.70;96588.28;127598;1093;29922;-83
2021/08/18 10:50:48;;;;;;;10.20;5.53;;;;;;;18.30;54.24;96601.13;127675;1093;22803;-83
2021/08/18 10:53:35;;;;;;;10.58;5.88;;;;;;;18.19;52.59;96599.16;127612;1093;23253;-82
2021/08/18 10:56:44;;;;;;;9.40;5.68;;;;;;;18.23;53.59;96594.70;127571;1093;23315;-83
2021/08/18 10:59:53;;;;;;;9.70;5.33;;;;;;;18.28;54.85;96599.86;127646;1093;23338;-83
2021/08/18 11:02:50;;;;;;;8.60;5.43;;;;;;;18.27;54.16;96587.56;127588;1093;25678;-83
2021/08/18 11:05:24;;;;;;;9.00;5.50;;;;;;;18.20;54.15;96592.69;127586;1093;22795;-83
2021/08/18 11:08:10;;;;;;;10.38;5.78;;;;;;;18.18;54.32;96589.55;127584;1093;30978;-82
2021/08/18 11:11:06;;;;;;;8.85;5.00;;;;;;;18.21;53.96;96594.25;127580;1093;29996;-83
2021/08/18 11:13:42;;;;;;;8.33;4.85;;;;;;;18.10;53.31;96599.22;127605;1093;23870;-83
2021/08/18 11:16:17;;;;;;;8.20;4.80;;;;;;;18.09;53.98;96598.42;127558;1093;22806;-83
2021/08/18 11:18:51;;;;;;;9.93;5.23;;;;;;;18.18;54.00;96587.65;127623;1093;25066;-83
2021/08/18 11:21:25;;;;;;;8.98;4.95;;;;;;;18.27;54.36;96590.24;127623;1093;24475;-83
2021/08/18 11:24:00;;;;;;;7.80;4.53;;;;;;;18.20;52.53;96587.31;127604;1093;26254;-83
2021/08/18 11:26:36;;;;;;;7.85;4.90;;;;;;;18.13;53.21;96582.45;127651;1093;24538;-83
2021/08/18 11:29:10;;;;;;;8.70;5.48;;;;;;;18.14;52.99;96581.34;127549;1093;34466;-83
2021/08/18 11:31:45;;;;;;;8.00;5.10;;;;;;;18.28;53.05;96584.55;127581;1093;28199;-83
2021/08/18 11:34:27;;;;;;;8.13;4.95;;;;;;;18.63;54.26;96584.27;127687;1093;23048;-83
2021/08/18 11:37:04;;;;;;;8.98;5.38;;;;;;;18.87;51.62;96578.22;127682;1092;22883;-82
2021/08/18 11:39:37;;;;;;;10.13;5.75;;;;;;;18.74;51.41;96580.09;127649;1093;25884;-82
2021/08/18 11:42:17;;;;;;;8.60;5.23;;;;;;;18.62;52.83;96577.33;127552;1093;23604;-82
2021/08/18 11:45:01;;;;;;;8.58;5.13;;;;;;;18.66;53.11;96579.04;127631;1093;24613;-83
2021/08/18 11:47:34;;;;;;;9.45;4.98;;;;;;;18.71;52.45;96575.36;127542;1093;25999;-82
2021/08/18 11:50:13;;;;;;;7.93;4.83;;;;;;;18.48;52.61;96584.88;127597;1093;38791;-82
2021/08/18 11:52:44;;;;;;;9.98;5.35;;;;;;;18.40;52.68;96583.83;127649;1093;25970;-84